createdAt,value
2019-04-25T00:00:09.925Z,6.47
2019-04-25T00:02:40.821Z,7.93
2019-04-25T00:05:12.445Z,6.40
2019-04-25T00:07:42.500Z,3.92
2019-04-25T00:10:13.487Z,6.00
2019-04-25T00:12:43.211Z,4.55
2019-04-25T00:15:12.473Z,2.27
2019-04-25T00:17:42.281Z,1.15
2019-04-25T00:20:12.216Z,3.25
2019-04-25T00:22:45.403Z,2.95
2019-04-25T00:25:18.017Z,3.27
2019-04-25T00:27:47.179Z,2.55
2019-04-25T00:30:15.877Z,1.60
2019-04-25T00:32:45.265Z,2.30
2019-04-25T00:35:13.999Z,2.83
2019-04-25T00:37:44.915Z,3.60
2019-04-25T00:40:13.521Z,1.35
2019-04-25T00:42:43.625Z,2.90
2019-04-25T00:45:13.981Z,2.25
2019-04-25T00:47:44.416Z,5.45
2019-04-25T00:50:13.201Z,3.42
2019-04-25T00:52:43.549Z,1.17
2019-04-25T00:55:13.240Z,2.87
2019-04-25T00:57:43.625Z,3.12
2019-04-25T01:00:15.662Z,2.80
2019-04-25T01:02:49.397Z,2.45
2019-04-25T01:05:18.546Z,3.33
2019-04-25T01:07:47.744Z,7.45
2019-04-25T01:10:16.532Z,2.70
2019-04-25T01:12:45.113Z,6.25
2019-04-25T01:15:15.113Z,2.05
2019-04-25T01:17:45.266Z,3.42
2019-04-25T01:20:14.088Z,12.73
2019-04-25T01:22:44.094Z,3.70
2019-04-25T01:25:13.809Z,5.83
2019-04-25T01:27:43.313Z,3.83
2019-04-25T01:30:14.200Z,2.90
2019-04-25T01:32:44.630Z,2.17
2019-04-25T01:35:14.989Z,6.87
2019-04-25T01:37:54.653Z,4.83
2019-04-25T01:40:41.245Z,1.52
2019-04-25T01:43:17.344Z,1.65
2019-04-25T01:45:45.887Z,2.25
2019-04-25T01:48:14.631Z,2.85
2019-04-25T01:50:43.729Z,2.85
2019-04-25T01:53:12.457Z,2.95
2019-04-25T01:55:53.012Z,5.90
2019-04-25T01:58:11.428Z,1.42
2019-04-25T02:00:43.105Z,3.20
2019-04-25T02:03:13.568Z,5.85
2019-04-25T02:05:43.782Z,9.20
2019-04-25T02:08:14.196Z,1.15
2019-04-25T02:10:44.460Z,4.87
2019-04-25T02:13:21.239Z,1.32
2019-04-25T02:15:53.911Z,2.47
2019-04-25T02:18:23.833Z,1.15
2019-04-25T02:20:54.893Z,1.65
2019-04-25T02:23:26.661Z,3.33
2019-04-25T02:26:10.710Z,4.78
2019-04-25T02:28:29.144Z,1.80
2019-04-25T02:31:02.326Z,3.12
2019-04-25T02:33:34.173Z,6.25
2019-04-25T02:36:08.619Z,1.72
2019-04-25T02:38:35.698Z,2.33
2019-04-25T02:41:08.354Z,10.32
2019-04-25T02:43:35.676Z,4.83
2019-04-25T02:46:20.027Z,4.00
2019-04-25T02:48:51.959Z,8.45
2019-04-25T02:51:39.475Z,7.78
2019-04-25T02:54:08.863Z,7.92
2019-04-25T02:56:39.126Z,5.50
2019-04-25T02:59:09.134Z,3.20
2019-04-25T03:01:38.055Z,5.08
2019-04-25T03:04:10.702Z,3.15
2019-04-25T03:06:38.485Z,4.00
2019-04-25T03:09:10.138Z,3.70
2019-04-25T03:11:38.911Z,14.00
2019-04-25T03:14:09.998Z,4.87
2019-04-25T03:16:38.509Z,3.10
2019-04-25T03:19:14.882Z,8.00
2019-04-25T03:21:59.511Z,2.45
2019-04-25T03:24:29.428Z,2.20
2019-04-25T03:27:00.965Z,3.12
2019-04-25T03:29:30.188Z,1.98
2019-04-25T03:32:00.931Z,2.40
2019-04-25T03:34:30.410Z,2.42
2019-04-25T03:36:59.487Z,4.15
2019-04-25T03:39:29.490Z,3.20
2019-04-25T03:41:58.666Z,3.15
2019-04-25T03:44:27.645Z,2.37
2019-04-25T03:46:56.860Z,4.70
2019-04-25T03:49:26.592Z,2.15
2019-04-25T03:51:56.062Z,3.15
2019-04-25T03:54:25.751Z,3.22
2019-04-25T03:56:56.230Z,6.33
2019-04-25T03:59:27.434Z,2.02
2019-04-25T04:01:56.731Z,3.05
2019-04-25T04:04:26.073Z,3.58
2019-04-25T04:06:55.761Z,1.98
2019-04-25T04:09:25.069Z,2.27
2019-04-25T04:11:54.401Z,4.40
2019-04-25T04:14:24.077Z,1.22
2019-04-25T04:17:10.847Z,3.33
2019-04-25T04:19:45.248Z,1.87
2019-04-25T04:22:31.140Z,1.57
2019-04-25T04:25:03.683Z,2.90
2019-04-25T04:27:33.664Z,5.62
2019-04-25T04:30:04.181Z,2.30
2019-04-25T04:32:34.019Z,3.05
2019-04-25T04:35:03.471Z,1.82
2019-04-25T04:37:33.296Z,3.22
2019-04-25T04:40:03.599Z,4.47
2019-04-25T04:42:33.697Z,2.87
2019-04-25T04:45:03.669Z,2.60
2019-04-25T04:47:33.239Z,3.37
2019-04-25T04:50:03.898Z,6.08
2019-04-25T04:52:34.109Z,1.32
2019-04-25T04:55:08.336Z,3.12
2019-04-25T04:57:36.144Z,3.65
2019-04-25T05:00:06.465Z,4.10
2019-04-25T05:02:36.841Z,2.55
2019-04-25T05:05:23.540Z,5.15
2019-04-25T05:07:54.548Z,1.37
2019-04-25T05:10:23.732Z,7.22
2019-04-25T05:12:53.411Z,3.90
2019-04-25T05:15:24.518Z,1.90
2019-04-25T05:17:54.177Z,6.00
2019-04-25T05:20:24.190Z,3.00
2019-04-25T05:22:55.019Z,2.75
2019-04-25T05:25:24.741Z,2.25
2019-04-25T05:28:00.700Z,2.30
2019-04-25T05:30:28.165Z,2.00
2019-04-25T05:32:56.893Z,2.00
2019-04-25T05:35:25.571Z,6.85
2019-04-25T05:37:54.219Z,5.28
2019-04-25T05:40:24.431Z,11.35
2019-04-25T05:43:03.609Z,5.75
2019-04-25T05:45:33.995Z,3.87
2019-04-25T05:48:05.686Z,15.43
2019-04-25T05:50:33.872Z,15.23
2019-04-25T05:53:04.170Z,3.95
2019-04-25T05:55:34.137Z,4.17
2019-04-25T05:58:03.848Z,2.25
2019-04-25T06:00:34.063Z,3.98
2019-04-25T06:03:03.566Z,11.00
2019-04-25T06:05:33.498Z,8.05
2019-04-25T06:08:04.147Z,5.30
2019-04-25T06:10:34.329Z,1.67
2019-04-25T06:13:24.982Z,3.85
2019-04-25T06:15:55.740Z,5.78
2019-04-25T06:18:29.826Z,4.90
2019-04-25T06:20:59.286Z,2.35
2019-04-25T06:23:46.910Z,4.70
2019-04-25T06:26:26.640Z,5.22
2019-04-25T06:28:53.842Z,2.20
2019-04-25T06:31:17.565Z,2.90
2019-04-25T06:33:46.279Z,8.83
2019-04-25T06:36:14.922Z,2.85
2019-04-25T06:38:45.739Z,1.92
2019-04-25T06:41:14.617Z,5.03
2019-04-25T06:43:44.855Z,10.90
2019-04-25T06:46:24.468Z,3.47
2019-04-25T06:48:59.879Z,4.78
2019-04-25T06:51:46.261Z,4.67
2019-04-25T06:54:14.850Z,4.23
2019-04-25T06:56:43.505Z,9.23
2019-04-25T06:59:13.648Z,4.33
2019-04-25T07:01:43.884Z,3.13
2019-04-25T07:04:14.053Z,6.40
2019-04-25T07:06:44.495Z,2.93
2019-04-25T07:09:14.656Z,1.47
2019-04-25T07:11:44.077Z,4.57
2019-04-25T07:14:14.195Z,3.73
2019-04-25T07:16:43.341Z,4.40
2019-04-25T07:19:12.074Z,1.47
2019-04-25T07:21:40.725Z,4.97
2019-04-25T07:24:09.784Z,1.53
2019-04-25T07:26:46.094Z,3.90
2019-04-25T07:29:19.499Z,2.70
2019-04-25T07:32:07.725Z,5.07
2019-04-25T07:34:37.808Z,3.53
2019-04-25T07:37:08.077Z,2.23
2019-04-25T07:39:37.198Z,3.30
2019-04-25T07:42:06.025Z,2.50
2019-04-25T07:44:48.923Z,3.43
2019-04-25T07:47:06.136Z,1.80
2019-04-25T07:49:35.976Z,1.70
2019-04-25T07:52:05.057Z,2.40
2019-04-25T07:54:35.507Z,2.53
2019-04-25T07:57:05.654Z,3.77
2019-04-25T07:59:35.373Z,2.27
2019-04-25T08:02:04.898Z,1.60
2019-04-25T08:04:35.754Z,3.97
2019-04-25T08:07:04.671Z,1.90
2019-04-25T08:09:35.214Z,1.40
2019-04-25T08:12:03.737Z,5.17
2019-04-25T08:14:39.518Z,2.90
2019-04-25T08:17:09.710Z,2.13
2019-04-25T08:19:39.151Z,7.53
2019-04-25T08:22:08.153Z,3.60
2019-04-25T08:24:37.983Z,3.87
2019-04-25T08:27:07.271Z,1.97
2019-04-25T08:29:38.078Z,3.63
2019-04-25T08:32:06.610Z,1.93
2019-04-25T08:34:36.310Z,1.93
2019-04-25T08:37:17.564Z,2.23
2019-04-25T08:39:38.139Z,2.20
2019-04-25T08:42:07.026Z,2.97
2019-04-25T08:44:36.881Z,2.83
2019-04-25T08:47:05.719Z,5.37
2019-04-25T08:49:36.487Z,1.57
2019-04-25T08:52:05.931Z,3.50
2019-04-25T08:54:47.427Z,3.07
2019-04-25T08:57:17.126Z,2.03
2019-04-25T08:59:52.337Z,3.23
2019-04-25T09:02:31.612Z,2.30
2019-04-25T09:05:24.157Z,2.80
2019-04-25T09:07:56.149Z,3.23
2019-04-25T09:10:25.392Z,5.00
2019-04-25T09:12:54.543Z,1.63
2019-04-25T09:15:24.147Z,2.70
2019-04-25T09:17:54.699Z,2.20
2019-04-25T09:20:25.125Z,2.13
2019-04-25T09:22:54.347Z,1.13
2019-04-25T09:25:24.339Z,2.20
2019-04-25T09:27:54.493Z,2.47
2019-04-25T09:30:24.135Z,3.10
2019-04-25T09:32:53.579Z,2.60
2019-04-25T09:35:23.778Z,2.50
2019-04-25T09:37:53.593Z,4.50
2019-04-25T09:40:24.515Z,5.17
2019-04-25T09:42:55.220Z,1.17
2019-04-25T09:45:30.036Z,4.13
2019-04-25T09:48:13.213Z,3.20
2019-04-25T09:50:46.554Z,1.73
2019-04-25T09:53:23.577Z,4.93
2019-04-25T09:55:48.348Z,4.20
2019-04-25T09:58:37.915Z,1.30
2019-04-25T10:01:11.423Z,7.80
2019-04-25T10:03:40.909Z,1.30
2019-04-25T10:06:09.576Z,3.53
2019-04-25T10:08:38.711Z,2.97
2019-04-25T10:11:07.553Z,1.73
2019-04-25T10:13:36.467Z,5.80
2019-04-25T10:16:12.344Z,1.90
2019-04-25T10:18:41.364Z,4.70
2019-04-25T10:21:11.391Z,1.73
2019-04-25T10:23:42.123Z,6.67
2019-04-25T10:26:12.214Z,4.83
2019-04-25T10:28:41.673Z,3.00
2019-04-25T10:31:10.629Z,1.27
2019-04-25T10:33:39.750Z,1.77
2019-04-25T10:36:10.930Z,1.37
2019-04-25T10:38:40.332Z,4.23
2019-04-25T10:41:09.210Z,3.87
2019-04-25T10:43:37.835Z,3.20
2019-04-25T10:46:06.866Z,2.77
2019-04-25T10:48:36.149Z,2.77
2019-04-25T10:51:05.234Z,3.00
2019-04-25T10:53:34.230Z,1.93
2019-04-25T10:56:03.769Z,3.57
2019-04-25T10:58:35.214Z,2.70
2019-04-25T11:01:05.082Z,4.80
2019-04-25T11:03:35.954Z,3.47
2019-04-25T11:06:05.472Z,5.03
2019-04-25T11:08:34.674Z,7.37
2019-04-25T11:11:03.832Z,1.00
2019-04-25T11:13:33.928Z,2.17
2019-04-25T11:16:04.160Z,3.60
2019-04-25T11:18:34.034Z,2.43
2019-04-25T11:21:04.283Z,4.20
2019-04-25T11:23:33.645Z,1.63
2019-04-25T11:26:03.874Z,3.90
2019-04-25T11:28:35.813Z,4.50
2019-04-25T11:31:06.479Z,1.67
2019-04-25T11:33:36.245Z,1.37
2019-04-25T11:36:05.776Z,3.33
2019-04-25T11:38:53.807Z,8.50
2019-04-25T11:41:24.327Z,2.70
2019-04-25T11:43:55.225Z,2.23
2019-04-25T11:46:24.749Z,1.73
2019-04-25T11:48:54.793Z,2.37
2019-04-25T11:51:24.296Z,1.73
2019-04-25T11:53:54.601Z,1.70
2019-04-25T11:56:24.611Z,2.20
2019-04-25T11:58:55.000Z,2.23
2019-04-25T12:01:24.773Z,2.50
2019-04-25T12:03:56.068Z,7.43
2019-04-25T12:06:25.187Z,1.87
2019-04-25T12:08:56.444Z,4.10
2019-04-25T12:11:26.116Z,3.27
2019-04-25T12:13:55.664Z,2.40
2019-04-25T12:16:24.917Z,2.27
2019-04-25T12:18:56.494Z,1.27
2019-04-25T12:21:25.854Z,2.60
2019-04-25T12:23:55.365Z,1.47
2019-04-25T12:26:26.302Z,1.47
2019-04-25T12:28:56.619Z,1.90
2019-04-25T12:31:26.211Z,3.00
2019-04-25T12:33:57.621Z,2.67
2019-04-25T12:36:28.345Z,1.83
2019-04-25T12:38:57.523Z,1.10
2019-04-25T12:41:26.665Z,2.20
2019-04-25T12:43:57.719Z,1.60
2019-04-25T12:46:28.728Z,2.70
2019-04-25T12:48:57.830Z,1.23
2019-04-25T12:51:27.234Z,3.97
2019-04-25T12:53:58.037Z,1.10
2019-04-25T12:56:27.865Z,2.50
2019-04-25T12:58:57.473Z,2.77
2019-04-25T13:01:27.027Z,1.77
2019-04-25T13:03:56.275Z,3.23
2019-04-25T13:06:25.997Z,1.50
2019-04-25T13:08:56.065Z,4.80
2019-04-25T13:11:25.249Z,2.60
2019-04-25T13:13:55.678Z,3.10
2019-04-25T13:16:25.147Z,2.17
2019-04-25T13:18:55.598Z,4.60
2019-04-25T13:21:25.395Z,1.20
2019-04-25T13:23:58.055Z,3.10
2019-04-25T13:26:31.086Z,1.20
2019-04-25T13:29:05.208Z,1.30
2019-04-25T13:31:53.226Z,1.20
2019-04-25T13:34:35.707Z,4.63
2019-04-25T13:36:56.356Z,3.37
2019-04-25T13:39:25.746Z,8.37
2019-04-25T13:41:58.302Z,3.60
2019-04-25T13:44:25.390Z,5.60
2019-04-25T13:46:54.223Z,2.73
2019-04-25T13:49:23.062Z,4.00
2019-04-25T13:51:52.107Z,8.40
2019-04-25T13:54:21.826Z,2.23
2019-04-25T13:56:53.211Z,1.83
2019-04-25T13:59:23.448Z,5.73
2019-04-25T14:01:57.574Z,2.87
2019-04-25T14:04:27.912Z,3.83
2019-04-25T14:06:56.671Z,4.63
2019-04-25T14:09:26.280Z,5.90
2019-04-25T14:11:55.967Z,3.20
2019-04-25T14:14:25.320Z,3.07
2019-04-25T14:17:13.810Z,4.27
2019-04-25T14:19:44.301Z,5.57
2019-04-25T14:22:12.862Z,3.50
2019-04-25T14:24:41.452Z,1.30
2019-04-25T14:27:11.641Z,4.70
2019-04-25T14:29:40.222Z,8.30
2019-04-25T14:32:09.958Z,6.40
2019-04-25T14:34:38.545Z,6.77
2019-04-25T14:37:07.397Z,3.23
2019-04-25T14:39:36.113Z,7.57
2019-04-25T14:42:04.814Z,4.03
2019-04-25T14:44:34.083Z,5.80
2019-04-25T14:47:03.606Z,2.87
2019-04-25T14:49:32.924Z,1.40
2019-04-25T14:52:01.593Z,8.17
2019-04-25T14:54:36.107Z,2.70
2019-04-25T14:57:06.401Z,4.83
2019-04-25T14:59:35.071Z,5.53
2019-04-25T15:02:03.942Z,2.33
2019-04-25T15:04:33.149Z,1.60
2019-04-25T15:07:01.925Z,2.70
2019-04-25T15:09:30.993Z,1.60
2019-04-25T15:11:59.682Z,2.63
2019-04-25T15:14:29.231Z,1.87
2019-04-25T15:16:58.134Z,2.87
2019-04-25T15:19:27.527Z,2.60
2019-04-25T15:21:56.716Z,2.07
2019-04-25T15:24:27.056Z,1.83
2019-04-25T15:26:57.467Z,4.47
2019-04-25T15:29:26.575Z,6.13
2019-04-25T15:31:56.225Z,3.93
2019-04-25T15:34:27.618Z,4.63
2019-04-25T15:36:58.545Z,4.30
2019-04-25T15:39:35.270Z,8.23
2019-04-25T15:42:22.396Z,6.70
2019-04-25T15:44:55.609Z,3.90
2019-04-25T15:47:26.444Z,3.17
2019-04-25T15:49:55.200Z,5.23
2019-04-25T15:52:24.413Z,4.00
2019-04-25T15:54:53.600Z,10.20
2019-04-25T15:57:22.443Z,6.70
2019-04-25T15:59:51.279Z,11.50
2019-04-25T16:02:20.560Z,12.17
2019-04-25T16:04:49.101Z,5.17
2019-04-25T16:07:17.854Z,8.63
2019-04-25T16:09:46.413Z,8.60
2019-04-25T16:12:15.573Z,12.93
2019-04-25T16:14:44.134Z,3.83
2019-04-25T16:17:12.713Z,6.10
2019-04-25T16:19:41.274Z,5.10
2019-04-25T16:22:09.857Z,4.17
2019-04-25T16:24:38.414Z,7.43
2019-04-25T16:27:07.169Z,11.70
2019-04-25T16:29:35.797Z,6.97
2019-04-25T16:32:06.085Z,4.90
2019-04-25T16:34:34.808Z,7.27
2019-04-25T16:37:03.929Z,4.90
2019-04-25T16:39:35.122Z,3.90
2019-04-25T16:42:03.986Z,12.47
2019-04-25T16:44:32.694Z,10.87
2019-04-25T16:47:01.403Z,9.60
2019-04-25T16:49:30.513Z,12.23
2019-04-25T16:51:59.347Z,7.37
2019-04-25T16:54:30.419Z,9.83
2019-04-25T16:56:59.541Z,6.63
2019-04-25T16:59:29.625Z,7.07
2019-04-25T17:02:00.409Z,6.70
2019-04-25T17:04:29.914Z,4.10
2019-04-25T17:06:59.451Z,12.30
2019-04-25T17:09:30.369Z,7.40
2019-04-25T17:12:09.894Z,18.50
2019-04-25T17:14:40.081Z,7.60
2019-04-25T17:17:27.092Z,6.07
2019-04-25T17:20:14.913Z,7.67
2019-04-25T17:22:43.658Z,7.13
2019-04-25T17:25:12.745Z,12.63
2019-04-25T17:27:41.351Z,3.27
2019-04-25T17:30:10.621Z,5.13
2019-04-25T17:32:50.333Z,5.00
2019-04-25T17:35:18.333Z,8.00
2019-04-25T17:38:09.515Z,2.97
2019-04-25T17:40:38.527Z,5.80
2019-04-25T17:43:11.178Z,8.10
2019-04-25T17:45:39.034Z,5.93
2019-04-25T17:48:07.979Z,6.50
2019-04-25T17:50:37.490Z,7.27
2019-04-25T17:53:07.728Z,10.77
2019-04-25T17:55:37.418Z,5.77
2019-04-25T17:58:06.726Z,4.73
2019-04-25T18:00:37.868Z,6.73
2019-04-25T18:03:08.601Z,10.53
2019-04-25T18:05:37.406Z,7.30
2019-04-25T18:08:09.253Z,4.00
2019-04-25T18:10:37.967Z,8.63
2019-04-25T18:13:09.448Z,7.33
2019-04-25T18:15:45.952Z,4.53
2019-04-25T18:18:19.491Z,9.83
2019-04-25T18:20:48.215Z,5.87
2019-04-25T18:23:36.614Z,6.77
2019-04-25T18:26:06.950Z,8.00
2019-04-25T18:28:37.416Z,3.30
2019-04-25T18:31:07.495Z,7.50
2019-04-25T18:33:37.275Z,3.77
2019-04-25T18:36:07.450Z,10.87
2019-04-25T18:38:51.985Z,9.03
2019-04-25T18:41:25.434Z,6.70
2019-04-25T18:43:56.317Z,12.23
2019-04-25T18:46:28.486Z,5.40
2019-04-25T18:48:59.074Z,5.00
2019-04-25T18:51:29.039Z,7.73
2019-04-25T18:54:15.869Z,9.00
2019-04-25T18:56:46.146Z,5.70
2019-04-25T18:59:33.807Z,6.03
2019-04-25T19:02:13.126Z,5.80
2019-04-25T19:04:43.349Z,8.00
2019-04-25T19:07:22.143Z,4.67
2019-04-25T19:09:43.696Z,8.07
2019-04-25T19:12:12.260Z,6.67
2019-04-25T19:14:41.336Z,8.87
2019-04-25T19:17:11.319Z,5.53
2019-04-25T19:19:41.041Z,7.27
2019-04-25T19:22:09.702Z,8.33
2019-04-25T19:24:40.362Z,5.90
2019-04-25T19:27:08.653Z,9.23
2019-04-25T19:29:37.383Z,6.20
2019-04-25T19:32:06.366Z,11.57
2019-04-25T19:34:36.281Z,12.27
2019-04-25T19:37:05.135Z,7.00
2019-04-25T19:39:36.312Z,7.37
2019-04-25T19:42:24.340Z,5.27
2019-04-25T19:44:54.677Z,11.33
2019-04-25T19:47:27.847Z,7.13
2019-04-25T19:49:58.641Z,5.90
2019-04-25T19:52:29.820Z,12.00
2019-04-25T19:55:01.177Z,14.30
2019-04-25T19:57:30.402Z,7.87
2019-04-25T20:00:00.434Z,8.80
2019-04-25T20:02:48.739Z,5.73
2019-04-25T20:05:22.956Z,8.20
2019-04-25T20:07:57.746Z,8.80
2019-04-25T20:10:37.122Z,10.03
2019-04-25T20:13:06.461Z,5.57
2019-04-25T20:15:35.756Z,6.70
2019-04-25T20:18:05.027Z,9.97
2019-04-25T20:20:34.177Z,8.03
2019-04-25T20:23:03.217Z,5.93
2019-04-25T20:25:32.414Z,8.07
2019-04-25T20:28:01.647Z,8.00
2019-04-25T20:30:30.815Z,10.13
2019-04-25T20:32:59.737Z,11.97
2019-04-25T20:35:28.543Z,5.97
2019-04-25T20:37:57.741Z,10.37
2019-04-25T20:40:26.319Z,11.10
2019-04-25T20:42:55.018Z,9.73
2019-04-25T20:45:24.025Z,8.10
2019-04-25T20:47:52.830Z,10.10
2019-04-25T20:50:21.619Z,6.50
2019-04-25T20:52:50.787Z,7.43
2019-04-25T20:55:19.449Z,6.13
2019-04-25T20:57:48.523Z,11.03
2019-04-25T21:00:22.789Z,7.40
2019-04-25T21:02:51.922Z,6.17
2019-04-25T21:05:22.458Z,13.80
2019-04-25T21:07:55.309Z,6.40
2019-04-25T21:10:24.299Z,10.90
2019-04-25T21:12:53.696Z,9.27
2019-04-25T21:15:36.601Z,10.13
2019-04-25T21:18:09.587Z,9.13
2019-04-25T21:20:40.766Z,13.33
2019-04-25T21:23:09.376Z,14.00
2019-04-25T21:25:38.221Z,12.10
2019-04-25T21:28:07.087Z,19.13
2019-04-25T21:30:35.943Z,14.13
2019-04-25T21:33:04.861Z,11.27
2019-04-25T21:35:34.528Z,23.87
2019-04-25T21:38:03.354Z,18.73
2019-04-25T21:40:34.219Z,33.57
2019-04-25T21:43:04.964Z,14.90
2019-04-25T21:45:34.704Z,12.30
2019-04-25T21:48:04.434Z,9.90
2019-04-25T21:50:33.707Z,12.90
2019-04-25T21:53:03.251Z,17.77
2019-04-25T21:55:32.251Z,23.43
2019-04-25T21:58:02.069Z,13.03
2019-04-25T22:00:44.797Z,13.70
2019-04-25T22:03:15.226Z,16.67
2019-04-25T22:05:44.057Z,19.23
2019-04-25T22:08:12.641Z,16.23
2019-04-25T22:10:41.207Z,12.43
2019-04-25T22:13:16.123Z,15.10
2019-04-25T22:15:40.338Z,12.30
2019-04-25T22:18:08.920Z,17.03
2019-04-25T22:20:37.617Z,19.87
2019-04-25T22:23:06.784Z,16.13
2019-04-25T22:25:36.268Z,12.20
2019-04-25T22:28:05.596Z,14.70
2019-04-25T22:30:35.113Z,17.33
2019-04-25T22:33:24.880Z,16.90
2019-04-25T22:35:57.685Z,14.60
2019-04-25T22:38:28.836Z,18.73
2019-04-25T22:41:00.164Z,13.27
2019-04-25T22:43:32.323Z,15.97
2019-04-25T22:46:03.852Z,12.80
2019-04-25T22:48:48.585Z,12.33
2019-04-25T22:51:17.980Z,16.03
2019-04-25T22:53:47.809Z,12.10
2019-04-25T22:56:16.377Z,13.33
2019-04-25T22:58:45.065Z,8.50
2019-04-25T23:01:29.151Z,7.47
2019-04-25T23:04:10.641Z,8.63
2019-04-25T23:06:48.916Z,17.10
2019-04-25T23:09:17.501Z,17.57
2019-04-25T23:11:46.369Z,18.10
2019-04-25T23:14:15.258Z,15.73
2019-04-25T23:16:43.826Z,12.73
2019-04-25T23:19:12.456Z,11.63
2019-04-25T23:21:42.041Z,14.10
2019-04-25T23:24:11.852Z,11.50
2019-04-25T23:26:57.121Z,15.43
2019-04-25T23:29:29.965Z,11.57
2019-04-25T23:32:01.690Z,10.43
2019-04-25T23:34:32.319Z,14.67
2019-04-25T23:37:01.582Z,6.73
2019-04-25T23:39:31.075Z,15.70
2019-04-25T23:42:01.010Z,16.03
2019-04-25T23:44:30.774Z,19.37
2019-04-25T23:47:00.081Z,7.33
2019-04-25T23:49:32.698Z,11.97
2019-04-25T23:52:02.538Z,14.77
2019-04-25T23:54:31.949Z,7.70
2019-04-25T23:57:01.560Z,6.60
2019-04-25T23:59:30.887Z,13.03
